createdAt,value
2017-12-15T00:00:35.388Z,3.19
2017-12-15T00:01:35.378Z,3.19
2017-12-15T00:02:35.362Z,3.25
2017-12-15T00:03:35.351Z,3.19
2017-12-15T00:04:35.336Z,3.19
2017-12-15T00:05:35.322Z,3.13
2017-12-15T00:06:35.314Z,3.22
2017-12-15T00:07:35.298Z,3.21
2017-12-15T00:08:35.285Z,3.23
2017-12-15T00:09:35.274Z,3.21
2017-12-15T00:10:35.263Z,3.22
2017-12-15T00:11:35.248Z,3.13
2017-12-15T00:12:35.246Z,3.18
2017-12-15T00:13:35.224Z,3.14
2017-12-15T00:14:35.210Z,3.18
2017-12-15T00:15:35.197Z,3.14
2017-12-15T00:16:35.185Z,3.11
2017-12-15T00:17:35.197Z,3.11
2017-12-15T00:18:35.161Z,3.14
2017-12-15T00:19:35.154Z,3.26
2017-12-15T00:20:35.137Z,3.18
2017-12-15T00:21:35.123Z,3.31
2017-12-15T00:22:35.115Z,3.23
2017-12-15T00:23:35.098Z,3.18
2017-12-15T00:24:35.084Z,3.22
2017-12-15T00:25:35.082Z,3.25
2017-12-15T00:26:35.069Z,3.10
2017-12-15T00:27:35.049Z,3.16
2017-12-15T00:28:35.036Z,3.22
2017-12-15T00:29:35.025Z,3.14
2017-12-15T00:30:35.015Z,3.29
2017-12-15T00:31:35.000Z,3.19
2017-12-15T00:32:34.989Z,3.10
2017-12-15T00:33:35.012Z,3.16
2017-12-15T00:34:34.968Z,3.28
2017-12-15T00:35:34.955Z,3.11
2017-12-15T00:36:34.947Z,3.14
2017-12-15T00:37:34.939Z,3.21
2017-12-15T00:38:34.941Z,3.21
2017-12-15T00:39:34.916Z,3.23
2017-12-15T00:40:34.906Z,3.11
2017-12-15T00:41:34.886Z,3.19
2017-12-15T00:42:34.862Z,3.22
2017-12-15T00:43:34.852Z,3.16
2017-12-15T00:44:34.842Z,3.16
2017-12-15T00:45:34.825Z,3.14
2017-12-15T00:46:34.815Z,3.14
2017-12-15T00:47:34.800Z,3.22
2017-12-15T00:48:34.786Z,3.23
2017-12-15T00:49:34.775Z,3.19
2017-12-15T00:50:34.761Z,3.13
2017-12-15T00:51:34.758Z,3.13
2017-12-15T00:52:34.739Z,3.19
2017-12-15T00:53:34.726Z,3.10
2017-12-15T00:54:34.714Z,3.11
2017-12-15T00:55:34.701Z,3.18
2017-12-15T00:56:34.694Z,3.22
2017-12-15T00:57:34.676Z,3.11
2017-12-15T00:58:34.665Z,3.21
2017-12-15T00:59:34.654Z,3.14
2017-12-15T01:00:34.643Z,3.14
2017-12-15T01:01:34.630Z,3.08
2017-12-15T01:02:34.613Z,3.26
2017-12-15T01:03:34.601Z,3.23
2017-12-15T01:04:34.590Z,3.26
2017-12-15T01:05:34.577Z,3.22
2017-12-15T01:06:34.566Z,3.10
2017-12-15T01:07:34.554Z,3.14
2017-12-15T01:08:34.543Z,3.18
2017-12-15T01:09:34.537Z,3.11
2017-12-15T01:10:34.524Z,3.14
2017-12-15T01:11:34.504Z,3.13
2017-12-15T01:12:34.507Z,3.13
2017-12-15T01:13:34.513Z,3.10
2017-12-15T01:14:34.470Z,3.18
2017-12-15T01:15:34.459Z,3.22
2017-12-15T01:16:34.454Z,3.18
2017-12-15T01:17:34.432Z,3.13
2017-12-15T01:18:34.419Z,3.16
2017-12-15T01:19:34.437Z,3.11
2017-12-15T01:20:34.434Z,3.13
2017-12-15T01:21:34.426Z,3.19
2017-12-15T01:22:34.374Z,3.16
2017-12-15T01:23:34.356Z,3.18
2017-12-15T01:24:34.353Z,3.10
2017-12-15T01:25:34.425Z,3.11
2017-12-15T01:26:34.330Z,3.13
2017-12-15T01:27:34.375Z,3.21
2017-12-15T01:28:34.337Z,3.18
2017-12-15T01:29:34.288Z,3.18
2017-12-15T01:30:34.333Z,3.22
2017-12-15T01:31:34.262Z,3.18
2017-12-15T01:32:34.249Z,3.16
2017-12-15T01:33:34.240Z,3.14
2017-12-15T01:34:34.249Z,3.11
2017-12-15T01:35:34.229Z,3.10
2017-12-15T01:36:34.211Z,3.14
2017-12-15T01:37:34.259Z,3.13
2017-12-15T01:38:34.189Z,3.11
2017-12-15T01:39:34.160Z,3.07
2017-12-15T01:40:34.180Z,3.08
2017-12-15T01:41:34.142Z,3.07
2017-12-15T01:42:34.122Z,3.11
2017-12-15T01:43:34.137Z,3.10
2017-12-15T01:44:34.100Z,3.11
2017-12-15T01:45:34.088Z,3.11
2017-12-15T01:46:34.073Z,3.14
2017-12-15T01:47:34.060Z,3.07
2017-12-15T01:48:34.048Z,3.11
2017-12-15T01:49:34.037Z,3.10
2017-12-15T01:50:34.026Z,3.08
2017-12-15T01:51:34.012Z,3.07
2017-12-15T01:52:33.999Z,3.10
2017-12-15T01:53:33.987Z,3.07
2017-12-15T01:54:33.975Z,3.10
2017-12-15T01:55:33.962Z,3.04
2017-12-15T01:56:33.952Z,3.05
2017-12-15T01:57:33.936Z,3.01
2017-12-15T01:58:33.925Z,3.10
2017-12-15T01:59:33.918Z,3.05
2017-12-15T02:00:33.900Z,2.98
2017-12-15T02:01:33.889Z,3.04
2017-12-15T02:02:33.882Z,3.03
2017-12-15T02:03:33.864Z,2.95
2017-12-15T02:04:48.498Z,3.01
2017-12-15T02:05:33.839Z,3.03
2017-12-15T02:06:33.825Z,3.01
2017-12-15T02:07:33.814Z,3.05
2017-12-15T02:08:33.802Z,3.05
2017-12-15T02:09:33.793Z,3.07
2017-12-15T02:10:33.777Z,3.03
2017-12-15T02:11:33.764Z,2.97
2017-12-15T02:12:33.754Z,3.04
2017-12-15T02:13:33.749Z,3.03
2017-12-15T02:14:33.735Z,3.05
2017-12-15T02:15:33.718Z,3.07
2017-12-15T02:16:33.702Z,3.00
2017-12-15T02:17:33.698Z,2.95
2017-12-15T02:18:33.685Z,2.97
2017-12-15T02:19:33.665Z,3.04
2017-12-15T02:20:33.656Z,3.03
2017-12-15T02:21:33.641Z,3.05
2017-12-15T02:22:33.629Z,3.01
2017-12-15T02:23:33.619Z,3.00
2017-12-15T02:24:33.602Z,2.92
2017-12-15T02:25:33.590Z,3.01
2017-12-15T02:26:33.578Z,3.05
2017-12-15T02:27:33.569Z,3.01
2017-12-15T02:28:33.555Z,3.05
2017-12-15T02:29:33.541Z,2.98
2017-12-15T02:30:33.530Z,3.03
2017-12-15T02:31:33.519Z,2.97
2017-12-15T02:32:33.506Z,3.05
2017-12-15T02:33:33.493Z,3.01
2017-12-15T02:34:33.481Z,3.01
2017-12-15T02:35:33.467Z,3.01
2017-12-15T02:36:33.455Z,3.01
2017-12-15T02:37:33.443Z,3.03
2017-12-15T02:38:33.439Z,3.07
2017-12-15T02:39:33.417Z,3.05
2017-12-15T02:40:33.404Z,3.03
2017-12-15T02:41:33.392Z,3.00
2017-12-15T02:42:33.379Z,3.04
2017-12-15T02:43:33.367Z,3.10
2017-12-15T02:44:33.355Z,3.07
2017-12-15T02:45:33.344Z,3.01
2017-12-15T02:46:33.329Z,3.01
2017-12-15T02:47:33.316Z,3.10
2017-12-15T02:48:33.306Z,3.13
2017-12-15T02:49:33.295Z,3.08
2017-12-15T02:50:33.280Z,3.05
2017-12-15T02:51:33.268Z,3.07
2017-12-15T02:52:33.255Z,3.07
2017-12-15T02:53:33.249Z,3.05
2017-12-15T02:54:33.233Z,3.04
2017-12-15T02:55:33.218Z,3.01
2017-12-15T02:56:33.208Z,3.05
2017-12-15T02:57:33.194Z,3.07
2017-12-15T02:58:33.184Z,3.05
2017-12-15T02:59:33.169Z,3.07
2017-12-15T03:00:33.156Z,3.01
2017-12-15T03:01:33.145Z,2.98
2017-12-15T03:02:33.132Z,3.05
2017-12-15T03:03:33.118Z,3.05
2017-12-15T03:04:33.109Z,3.05
2017-12-15T03:05:33.095Z,3.08
2017-12-15T03:06:33.083Z,3.05
2017-12-15T03:07:33.070Z,3.05
2017-12-15T03:08:33.060Z,3.03
2017-12-15T03:09:33.060Z,3.03
2017-12-15T03:10:33.034Z,3.07
2017-12-15T03:11:33.025Z,3.05
2017-12-15T03:12:33.012Z,3.04
2017-12-15T03:13:32.995Z,3.05
2017-12-15T03:14:32.986Z,3.04
2017-12-15T03:15:32.977Z,3.04
2017-12-15T03:16:32.962Z,3.10
2017-12-15T03:17:32.946Z,3.00
2017-12-15T03:18:32.934Z,3.01
2017-12-15T03:19:32.926Z,3.05
2017-12-15T03:20:32.909Z,3.01
2017-12-15T03:21:32.898Z,3.03
2017-12-15T03:22:32.884Z,3.05
2017-12-15T03:23:32.877Z,3.04
2017-12-15T03:24:32.861Z,3.03
2017-12-15T03:25:32.846Z,2.92
2017-12-15T03:26:32.838Z,2.93
2017-12-15T03:27:32.828Z,3.03
2017-12-15T03:28:32.811Z,3.00
2017-12-15T03:29:32.799Z,3.04
2017-12-15T03:30:32.789Z,3.03
2017-12-15T03:31:32.771Z,2.97
2017-12-15T03:32:32.760Z,2.95
2017-12-15T03:33:32.752Z,3.01
2017-12-15T03:34:32.735Z,3.01
2017-12-15T03:35:32.721Z,3.07
2017-12-15T03:36:32.712Z,2.93
2017-12-15T03:37:32.711Z,3.01
2017-12-15T03:38:32.685Z,3.01
2017-12-15T03:39:32.670Z,3.01
2017-12-15T03:40:32.661Z,3.00
2017-12-15T03:41:32.647Z,2.95
2017-12-15T03:42:32.636Z,2.98
2017-12-15T03:43:32.622Z,2.97
2017-12-15T03:44:32.611Z,2.90
2017-12-15T03:45:32.597Z,3.01
2017-12-15T03:46:32.588Z,2.95
2017-12-15T03:47:32.580Z,2.98
2017-12-15T03:48:32.559Z,2.98
2017-12-15T03:49:32.550Z,2.98
2017-12-15T03:50:32.536Z,3.00
2017-12-15T03:51:32.525Z,2.98
2017-12-15T03:52:32.509Z,2.98
2017-12-15T03:53:32.498Z,2.97
2017-12-15T03:54:32.485Z,2.95
2017-12-15T03:55:32.470Z,2.95
2017-12-15T03:56:32.460Z,3.01
2017-12-15T03:57:32.447Z,2.95
2017-12-15T03:58:32.452Z,3.00
2017-12-15T03:59:32.421Z,2.95
2017-12-15T04:00:32.409Z,2.93
2017-12-15T04:01:32.397Z,2.95
2017-12-15T04:02:32.384Z,2.87
2017-12-15T04:03:32.372Z,2.95
2017-12-15T04:04:32.358Z,2.89
2017-12-15T04:05:32.346Z,2.92
2017-12-15T04:06:32.337Z,2.90
2017-12-15T04:07:32.321Z,2.83
2017-12-15T04:08:32.320Z,2.82
2017-12-15T04:09:32.299Z,2.90
2017-12-15T04:10:32.284Z,2.87
2017-12-15T04:11:32.270Z,2.86
2017-12-15T04:12:32.259Z,2.85
2017-12-15T04:13:32.247Z,2.85
2017-12-15T04:14:32.233Z,2.86
2017-12-15T04:15:32.220Z,2.89
2017-12-15T04:16:32.209Z,2.74
2017-12-15T04:17:32.195Z,2.83
2017-12-15T04:18:32.183Z,2.74
2017-12-15T04:19:32.170Z,2.85
2017-12-15T04:20:32.159Z,2.85
2017-12-15T04:21:32.144Z,2.77
2017-12-15T04:22:32.137Z,2.77
2017-12-15T04:23:32.119Z,2.79
2017-12-15T04:24:32.105Z,2.77
2017-12-15T04:25:32.098Z,2.82
2017-12-15T04:26:32.080Z,2.74
2017-12-15T04:27:32.067Z,2.75
2017-12-15T04:28:32.054Z,2.79
2017-12-15T04:29:32.042Z,2.64
2017-12-15T04:30:32.099Z,2.80
2017-12-15T04:31:32.017Z,2.74
2017-12-15T04:32:32.008Z,2.71
2017-12-15T04:33:31.994Z,2.69
2017-12-15T04:34:31.982Z,2.69
2017-12-15T04:35:31.966Z,2.74
2017-12-15T04:36:31.951Z,2.75
2017-12-15T04:37:31.939Z,2.71
2017-12-15T04:38:31.927Z,2.67
2017-12-15T04:39:31.913Z,2.65
2017-12-15T04:40:31.901Z,2.67
2017-12-15T04:41:31.889Z,2.71
2017-12-15T04:42:31.876Z,2.72
2017-12-15T04:43:31.863Z,2.71
2017-12-15T04:44:31.862Z,2.65
2017-12-15T04:45:31.838Z,2.65
2017-12-15T04:46:31.828Z,2.75
2017-12-15T04:47:31.810Z,2.72
2017-12-15T04:48:31.799Z,2.75
2017-12-15T04:49:31.790Z,2.67
2017-12-15T04:50:31.780Z,2.67
2017-12-15T04:51:31.767Z,2.71
2017-12-15T04:52:31.747Z,2.67
2017-12-15T04:53:31.734Z,2.65
2017-12-15T04:54:31.725Z,2.62
2017-12-15T04:55:31.710Z,2.72
2017-12-15T04:56:31.699Z,2.67
2017-12-15T04:57:31.692Z,2.72
2017-12-15T04:58:31.669Z,2.64
2017-12-15T04:59:31.663Z,2.69
2017-12-15T05:00:31.646Z,2.65
2017-12-15T05:01:31.638Z,2.64
2017-12-15T05:02:31.620Z,2.68
2017-12-15T05:03:31.606Z,2.65
2017-12-15T05:04:31.594Z,2.68
2017-12-15T05:05:31.582Z,2.61
2017-12-15T05:06:31.569Z,2.67
2017-12-15T05:07:31.555Z,2.62
2017-12-15T05:08:31.543Z,2.68
2017-12-15T05:09:31.530Z,2.74
2017-12-15T05:10:31.518Z,2.67
2017-12-15T05:11:31.506Z,2.74
2017-12-15T05:12:31.491Z,2.67
2017-12-15T05:13:31.483Z,2.72
2017-12-15T05:14:31.494Z,2.71
2017-12-15T05:15:31.452Z,2.72
2017-12-15T05:16:31.441Z,2.72
2017-12-15T05:17:31.428Z,2.65
2017-12-15T05:18:31.420Z,2.69
2017-12-15T05:19:31.402Z,2.72
2017-12-15T05:20:31.389Z,2.67
2017-12-15T05:21:31.377Z,2.65
2017-12-15T05:22:31.365Z,2.65
2017-12-15T05:23:31.351Z,2.74
2017-12-15T05:24:31.337Z,2.65
2017-12-15T05:25:31.328Z,2.71
2017-12-15T05:26:31.327Z,2.71
2017-12-15T05:27:31.300Z,2.69
2017-12-15T05:28:31.287Z,2.64
2017-12-15T05:29:31.276Z,2.67
2017-12-15T05:30:31.262Z,2.68
2017-12-15T05:31:31.254Z,2.67
2017-12-15T05:32:31.235Z,2.65
2017-12-15T05:33:31.223Z,2.72
2017-12-15T05:34:31.216Z,2.71
2017-12-15T05:35:31.198Z,2.60
2017-12-15T05:36:31.184Z,2.69
2017-12-15T05:37:31.175Z,2.69
2017-12-15T05:38:31.159Z,2.68
2017-12-15T05:39:31.147Z,2.67
2017-12-15T05:40:31.133Z,2.67
2017-12-15T05:41:31.119Z,2.71
2017-12-15T05:42:31.109Z,2.72
2017-12-15T05:43:31.094Z,2.69
2017-12-15T05:44:31.133Z,2.67
2017-12-15T05:45:31.083Z,2.68
2017-12-15T05:46:31.056Z,2.72
2017-12-15T05:47:31.044Z,2.69
2017-12-15T05:48:31.036Z,2.67
2017-12-15T05:49:31.019Z,2.67
2017-12-15T05:50:31.024Z,2.69
2017-12-15T05:51:30.993Z,2.64
2017-12-15T05:52:30.982Z,2.68
2017-12-15T05:53:30.968Z,2.68
2017-12-15T05:54:30.955Z,2.67
2017-12-15T05:55:30.945Z,2.67
2017-12-15T05:56:30.929Z,2.71
2017-12-15T05:57:30.916Z,2.71
2017-12-15T05:58:30.912Z,2.71
2017-12-15T05:59:30.890Z,2.68
2017-12-15T06:00:30.885Z,2.69
2017-12-15T06:01:30.868Z,2.65
2017-12-15T06:02:30.857Z,2.65
2017-12-15T06:03:30.840Z,2.69
2017-12-15T06:04:30.828Z,2.71
2017-12-15T06:05:30.817Z,2.72
2017-12-15T06:06:30.815Z,2.82
2017-12-15T06:07:30.790Z,2.68
2017-12-15T06:08:30.779Z,2.67
2017-12-15T06:09:30.764Z,2.64
2017-12-15T06:10:30.752Z,2.80
2017-12-15T06:11:30.745Z,2.79
2017-12-15T06:12:30.731Z,2.80
2017-12-15T06:13:30.715Z,2.80
2017-12-15T06:14:30.703Z,2.71
2017-12-15T06:15:30.688Z,2.80
2017-12-15T06:16:30.734Z,2.72
2017-12-15T06:17:30.664Z,2.74
2017-12-15T06:18:30.651Z,2.87
2017-12-15T06:19:30.638Z,2.80
2017-12-15T06:20:30.637Z,2.87
2017-12-15T06:21:30.631Z,2.79
2017-12-15T06:22:30.601Z,2.85
2017-12-15T06:23:30.587Z,2.82
2017-12-15T06:24:30.577Z,2.90
2017-12-15T06:25:30.584Z,2.85
2017-12-15T06:26:30.575Z,2.85
2017-12-15T06:27:30.545Z,2.82
2017-12-15T06:28:30.524Z,2.79
2017-12-15T06:29:30.521Z,2.83
2017-12-15T06:30:30.499Z,2.87
2017-12-15T06:31:30.500Z,2.85
2017-12-15T06:32:30.481Z,2.83
2017-12-15T06:33:30.461Z,2.86
2017-12-15T06:34:30.451Z,2.86
2017-12-15T06:35:30.436Z,2.82
2017-12-15T06:36:30.425Z,2.86
2017-12-15T06:37:30.412Z,2.82
2017-12-15T06:38:30.400Z,2.86
2017-12-15T06:39:30.386Z,2.83
2017-12-15T06:40:30.372Z,2.87
2017-12-15T06:41:30.362Z,2.87
2017-12-15T06:42:30.348Z,2.89
2017-12-15T06:43:30.349Z,2.87
2017-12-15T06:44:30.329Z,2.85
2017-12-15T06:45:30.310Z,2.90
2017-12-15T06:46:30.300Z,2.93
2017-12-15T06:47:30.285Z,2.86
2017-12-15T06:48:30.272Z,2.85
2017-12-15T06:49:30.259Z,2.93
2017-12-15T06:50:30.249Z,2.86
2017-12-15T06:51:30.235Z,2.92
2017-12-15T06:52:30.224Z,2.87
2017-12-15T06:53:30.209Z,2.89
2017-12-15T06:54:30.199Z,2.90
2017-12-15T06:55:30.207Z,2.87
2017-12-15T06:56:30.177Z,2.95
2017-12-15T06:57:30.161Z,3.01
2017-12-15T06:58:30.189Z,2.87
2017-12-15T06:59:30.223Z,2.93
2017-12-15T07:00:30.124Z,2.87
2017-12-15T07:01:30.109Z,2.90
2017-12-15T07:02:30.095Z,2.97
2017-12-15T07:03:30.118Z,2.95
2017-12-15T07:04:30.074Z,2.92
2017-12-15T07:05:30.061Z,2.97
2017-12-15T07:06:30.048Z,3.03
2017-12-15T07:07:30.035Z,2.98
2017-12-15T07:08:30.021Z,3.01
2017-12-15T07:09:30.009Z,2.90
2017-12-15T07:10:29.995Z,2.93
2017-12-15T07:11:29.982Z,2.83
2017-12-15T07:12:29.976Z,2.86
2017-12-15T07:13:29.956Z,2.90
2017-12-15T07:14:29.946Z,2.90
2017-12-15T07:15:29.940Z,2.77
2017-12-15T07:16:29.923Z,2.86
2017-12-15T07:17:29.907Z,2.80
2017-12-15T07:18:29.894Z,2.86
2017-12-15T07:19:29.879Z,2.82
2017-12-15T07:20:29.869Z,2.86
2017-12-15T07:21:29.858Z,2.90
2017-12-15T07:22:29.846Z,2.89
2017-12-15T07:23:29.841Z,2.87
2017-12-15T07:24:29.822Z,2.86
2017-12-15T07:25:29.809Z,2.86
2017-12-15T07:26:29.807Z,2.85
2017-12-15T07:27:29.781Z,2.85
2017-12-15T07:28:29.767Z,2.89
2017-12-15T07:29:29.756Z,2.95
2017-12-15T07:30:29.758Z,2.93
2017-12-15T07:31:29.732Z,2.92
2017-12-15T07:32:29.717Z,2.95
2017-12-15T07:33:29.705Z,2.97
2017-12-15T07:34:29.691Z,2.95
2017-12-15T07:35:29.681Z,2.97
2017-12-15T07:36:29.671Z,2.95
2017-12-15T07:37:29.655Z,2.98
2017-12-15T07:38:29.642Z,2.97
2017-12-15T07:39:29.628Z,2.98
2017-12-15T07:40:29.623Z,2.97
2017-12-15T07:41:29.605Z,3.00
2017-12-15T07:42:29.600Z,3.04
2017-12-15T07:43:29.583Z,3.04
2017-12-15T07:44:29.571Z,2.98
2017-12-15T07:45:29.553Z,2.92
2017-12-15T07:46:29.544Z,3.04
2017-12-15T07:47:29.528Z,3.01
2017-12-15T07:48:29.519Z,3.01
2017-12-15T07:49:29.503Z,3.10
2017-12-15T07:50:29.495Z,3.03
2017-12-15T07:51:29.479Z,3.01
2017-12-15T07:52:29.469Z,3.10
2017-12-15T07:53:29.462Z,3.07
2017-12-15T07:54:29.443Z,3.05
2017-12-15T07:55:29.434Z,3.03
2017-12-15T07:56:29.417Z,3.11
2017-12-15T07:57:29.418Z,3.05
2017-12-15T07:58:29.404Z,3.00
2017-12-15T07:59:29.383Z,3.07
2017-12-15T08:00:29.988Z,3.07
2017-12-15T08:01:29.354Z,3.04
2017-12-15T08:02:37.416Z,3.07
2017-12-15T08:04:23.001Z,3.05
2017-12-15T08:05:22.965Z,3.13
2017-12-15T08:07:16.733Z,3.07
2017-12-15T08:08:16.693Z,3.14
2017-12-15T08:10:10.510Z,3.08
2017-12-15T08:11:10.449Z,3.10
2017-12-15T08:13:04.070Z,3.16
2017-12-15T08:14:04.022Z,3.18
2017-12-15T08:15:57.827Z,3.08
2017-12-15T08:16:57.753Z,3.18
2017-12-15T08:18:51.560Z,3.14
2017-12-15T08:19:51.498Z,3.11
2017-12-15T08:21:45.116Z,3.11
2017-12-15T08:22:45.060Z,3.13
2017-12-15T08:24:38.889Z,3.14
2017-12-15T08:25:38.864Z,3.16
2017-12-15T08:27:32.542Z,3.18
2017-12-15T08:28:32.502Z,3.13
2017-12-15T08:30:26.466Z,3.18
2017-12-15T08:31:26.387Z,3.13
2017-12-15T08:33:20.112Z,3.10
2017-12-15T08:34:20.039Z,3.18
2017-12-15T08:36:13.774Z,3.18
2017-12-15T08:37:14.468Z,3.13
2017-12-15T08:39:09.426Z,3.26
2017-12-15T08:40:09.390Z,3.26
2017-12-15T08:42:03.056Z,3.13
2017-12-15T08:43:03.005Z,3.26
2017-12-15T08:44:56.581Z,3.13
2017-12-15T08:45:56.544Z,3.23
2017-12-15T08:46:56.530Z,3.18
2017-12-15T08:47:56.516Z,3.14
2017-12-15T08:48:56.506Z,3.22
2017-12-15T08:49:56.499Z,3.16
2017-12-15T08:50:56.479Z,3.23
2017-12-15T08:51:56.506Z,3.28
2017-12-15T08:52:56.460Z,3.26
2017-12-15T08:53:56.447Z,3.26
2017-12-15T08:54:56.438Z,3.19
2017-12-15T08:55:56.420Z,3.23
2017-12-15T08:56:56.404Z,3.19
2017-12-15T08:57:56.395Z,3.22
2017-12-15T08:58:56.381Z,3.28
2017-12-15T08:59:56.372Z,3.26
2017-12-15T09:00:56.355Z,3.16
2017-12-15T09:01:56.354Z,3.26
2017-12-15T09:02:56.331Z,3.18
2017-12-15T09:04:04.216Z,3.25
2017-12-15T09:05:50.042Z,3.18
2017-12-15T09:06:49.982Z,3.23
2017-12-15T09:08:48.535Z,3.25
2017-12-15T09:09:48.516Z,3.23
2017-12-15T09:10:48.505Z,3.25
2017-12-15T09:11:48.493Z,3.25
2017-12-15T09:12:48.480Z,3.26
2017-12-15T09:13:48.467Z,3.37
2017-12-15T09:14:48.456Z,3.37
2017-12-15T09:15:48.443Z,3.29
2017-12-15T09:16:48.429Z,3.32
2017-12-15T09:17:48.418Z,3.31
2017-12-15T09:18:49.903Z,3.44
2017-12-15T09:19:48.394Z,3.32
2017-12-15T09:20:48.383Z,3.40
2017-12-15T09:21:48.383Z,3.37
2017-12-15T09:22:48.356Z,3.40
2017-12-15T09:23:48.350Z,3.41
2017-12-15T09:24:48.332Z,3.40
2017-12-15T09:25:48.329Z,3.36
2017-12-15T09:26:48.308Z,3.40
2017-12-15T09:27:48.294Z,3.50
2017-12-15T09:28:48.287Z,3.51
2017-12-15T09:29:48.270Z,3.50
2017-12-15T09:30:48.265Z,3.55
2017-12-15T09:31:48.245Z,3.51
2017-12-15T09:32:48.237Z,3.56
2017-12-15T09:33:48.221Z,3.47
2017-12-15T09:34:48.210Z,3.53
2017-12-15T09:35:48.197Z,3.50
2017-12-15T09:36:48.185Z,3.56
2017-12-15T09:37:48.171Z,3.58
2017-12-15T09:38:48.161Z,3.65
2017-12-15T09:39:48.153Z,3.62
2017-12-15T09:40:48.137Z,3.63
2017-12-15T09:41:48.123Z,3.70
2017-12-15T09:42:48.114Z,3.78
2017-12-15T09:43:48.155Z,3.73
2017-12-15T09:44:48.088Z,3.74
2017-12-15T09:45:48.077Z,3.73
2017-12-15T09:46:48.064Z,3.76
2017-12-15T09:47:48.050Z,3.77
2017-12-15T09:48:48.043Z,3.78
2017-12-15T09:49:48.038Z,3.76
2017-12-15T09:50:48.018Z,3.87
2017-12-15T09:51:48.005Z,3.84
2017-12-15T09:52:47.994Z,3.88
2017-12-15T09:53:47.979Z,3.88
2017-12-15T09:54:47.969Z,3.88
2017-12-15T09:55:47.958Z,3.84
2017-12-15T09:56:47.946Z,3.86
2017-12-15T09:57:47.934Z,3.86
2017-12-15T09:58:47.922Z,3.91
2017-12-15T09:59:47.909Z,3.88
2017-12-15T10:00:47.898Z,3.88
2017-12-15T10:01:47.898Z,3.91
2017-12-15T10:02:47.877Z,3.92
2017-12-15T10:03:47.862Z,3.88
2017-12-15T10:04:47.898Z,3.84
2017-12-15T10:05:47.850Z,3.95
2017-12-15T10:06:47.826Z,3.84
2017-12-15T10:07:47.858Z,3.92
2017-12-15T10:08:47.802Z,3.92
2017-12-15T10:09:47.791Z,3.87
2017-12-15T10:10:47.778Z,3.91
2017-12-15T10:11:47.768Z,3.95
2017-12-15T10:12:47.756Z,3.86
2017-12-15T10:13:47.744Z,4.04
2017-12-15T10:14:47.732Z,4.01
2017-12-15T10:15:47.720Z,4.08
2017-12-15T10:16:47.709Z,4.04
2017-12-15T10:17:47.695Z,4.05
2017-12-15T10:18:47.685Z,4.08
2017-12-15T10:19:47.692Z,4.05
2017-12-15T10:20:47.665Z,4.06
2017-12-15T10:21:47.649Z,4.12
2017-12-15T10:22:47.638Z,4.12
2017-12-15T10:23:47.642Z,4.06
2017-12-15T10:24:47.617Z,4.13
2017-12-15T10:25:47.602Z,4.19
2017-12-15T10:26:47.614Z,4.06
2017-12-15T10:27:47.582Z,4.13
2017-12-15T10:28:47.570Z,4.14
2017-12-15T10:29:47.558Z,4.16
2017-12-15T10:30:47.546Z,4.17
2017-12-15T10:31:47.533Z,4.16
2017-12-15T10:32:47.522Z,4.24
2017-12-15T10:33:47.516Z,4.30
2017-12-15T10:34:47.501Z,4.19
2017-12-15T10:35:47.540Z,4.32
2017-12-15T10:36:47.476Z,4.20
2017-12-15T10:37:47.464Z,4.32
2017-12-15T10:38:47.453Z,4.31
2017-12-15T10:39:47.471Z,4.37
2017-12-15T10:40:47.434Z,4.41
2017-12-15T10:41:47.419Z,4.37
2017-12-15T10:42:47.407Z,4.44
2017-12-15T10:43:47.399Z,4.44
2017-12-15T10:44:47.394Z,4.49
2017-12-15T10:45:47.382Z,4.55
2017-12-15T10:46:47.361Z,4.60
2017-12-15T10:47:47.353Z,4.56
2017-12-15T10:48:47.340Z,4.67
2017-12-15T10:49:47.332Z,4.77
2017-12-15T10:50:47.318Z,4.78
2017-12-15T10:51:47.308Z,4.82
2017-12-15T10:52:47.297Z,4.78
2017-12-15T10:53:47.296Z,4.78
2017-12-15T10:54:47.276Z,4.93
2017-12-15T10:55:47.264Z,4.94
2017-12-15T10:56:47.255Z,4.93
2017-12-15T10:57:47.244Z,5.04
2017-12-15T10:58:47.231Z,5.04
2017-12-15T10:59:47.220Z,5.21
2017-12-15T11:00:47.211Z,5.21
2017-12-15T11:01:47.203Z,5.21
2017-12-15T11:02:47.191Z,5.33
2017-12-15T11:03:47.181Z,5.36
2017-12-15T11:04:47.170Z,5.32
2017-12-15T11:05:47.167Z,5.48
2017-12-15T11:06:47.150Z,5.53
2017-12-15T11:07:47.138Z,5.51
2017-12-15T11:08:47.133Z,5.46
2017-12-15T11:09:47.119Z,5.50
2017-12-15T11:10:47.112Z,5.61
2017-12-15T11:11:47.133Z,5.57
2017-12-15T11:12:47.098Z,5.57
2017-12-15T11:13:47.084Z,5.64
2017-12-15T11:14:47.070Z,5.57
2017-12-15T11:15:47.062Z,5.64
2017-12-15T11:16:47.054Z,5.72
2017-12-15T11:17:47.042Z,5.66
2017-12-15T11:18:47.033Z,5.79
2017-12-15T11:19:47.023Z,5.79
2017-12-15T11:20:47.013Z,5.79
2017-12-15T11:21:47.008Z,5.75
2017-12-15T11:22:46.996Z,5.89
2017-12-15T11:23:46.987Z,5.84
2017-12-15T11:24:46.977Z,5.82
2017-12-15T11:25:46.968Z,5.84
2017-12-15T11:26:46.959Z,5.80
2017-12-15T11:27:46.952Z,5.87
2017-12-15T11:28:46.941Z,5.79
2017-12-15T11:29:46.931Z,5.80
2017-12-15T11:30:46.922Z,5.79
2017-12-15T11:31:46.915Z,5.76
2017-12-15T11:32:46.907Z,5.86
2017-12-15T11:33:46.893Z,5.80
2017-12-15T11:34:46.884Z,5.82
2017-12-15T11:35:46.876Z,5.80
2017-12-15T11:36:46.868Z,5.73
2017-12-15T11:37:46.859Z,5.76
2017-12-15T11:38:46.853Z,5.59
2017-12-15T11:39:46.838Z,5.62
2017-12-15T11:40:46.830Z,5.66
2017-12-15T11:41:46.818Z,5.48
2017-12-15T11:42:46.809Z,5.61
2017-12-15T11:43:46.801Z,5.59
2017-12-15T11:44:46.792Z,5.51
2017-12-15T11:45:46.780Z,5.50
2017-12-15T11:46:46.772Z,5.48
2017-12-15T11:47:46.761Z,5.44
2017-12-15T11:48:48.410Z,5.46
2017-12-15T11:49:46.744Z,5.32
2017-12-15T11:50:46.742Z,5.36
2017-12-15T11:51:46.723Z,5.35
2017-12-15T11:52:46.714Z,5.35
2017-12-15T11:53:46.702Z,5.28
2017-12-15T11:54:46.702Z,5.38
2017-12-15T11:55:46.683Z,5.39
2017-12-15T11:56:46.676Z,5.28
2017-12-15T11:57:46.661Z,5.23
2017-12-15T11:58:46.650Z,5.25
2017-12-15T11:59:46.649Z,5.28
2017-12-15T12:00:46.631Z,5.17
2017-12-15T12:01:46.623Z,5.26
2017-12-15T12:02:46.611Z,5.30
2017-12-15T12:03:46.608Z,5.21
2017-12-15T12:04:46.591Z,5.33
2017-12-15T12:05:46.695Z,5.32
2017-12-15T12:06:46.570Z,5.32
2017-12-15T12:07:46.560Z,5.35
2017-12-15T12:08:46.551Z,5.33
2017-12-15T12:09:46.545Z,5.26
2017-12-15T12:10:46.530Z,5.43
2017-12-15T12:11:46.522Z,5.28
2017-12-15T12:12:46.511Z,5.39
2017-12-15T12:13:46.498Z,5.38
2017-12-15T12:14:46.490Z,5.38
2017-12-15T12:15:46.483Z,5.50
2017-12-15T12:16:46.469Z,5.44
2017-12-15T12:17:46.460Z,5.44
2017-12-15T12:18:46.473Z,5.43
2017-12-15T12:19:46.437Z,5.46
2017-12-15T12:20:46.427Z,5.33
2017-12-15T12:21:46.417Z,5.35
2017-12-15T12:22:46.406Z,5.38
2017-12-15T12:23:46.396Z,5.36
2017-12-15T12:24:46.386Z,5.38
2017-12-15T12:25:46.379Z,5.33
2017-12-15T12:26:46.365Z,5.29
2017-12-15T12:27:46.355Z,5.30
2017-12-15T12:28:46.344Z,5.26
2017-12-15T12:29:46.335Z,5.26
2017-12-15T12:30:46.322Z,5.26
2017-12-15T12:31:46.312Z,5.33
2017-12-15T12:32:46.302Z,5.29
2017-12-15T12:33:46.292Z,5.28
2017-12-15T12:34:46.282Z,5.25
2017-12-15T12:35:46.277Z,5.29
2017-12-15T12:36:46.262Z,5.26
2017-12-15T12:37:46.303Z,5.21
2017-12-15T12:38:46.253Z,5.30
2017-12-15T12:39:46.232Z,5.18
2017-12-15T12:40:46.218Z,5.25
2017-12-15T12:41:46.216Z,5.20
2017-12-15T12:42:46.204Z,5.20
2017-12-15T12:43:46.188Z,5.18
2017-12-15T12:44:46.225Z,5.18
2017-12-15T12:45:46.165Z,5.15
2017-12-15T12:46:46.154Z,5.17
2017-12-15T12:47:46.204Z,5.25
2017-12-15T12:48:47.938Z,5.30
2017-12-15T12:49:46.122Z,5.25
2017-12-15T12:50:46.112Z,5.18
2017-12-15T12:51:46.104Z,5.18
2017-12-15T12:52:46.091Z,5.18
2017-12-15T12:53:46.096Z,5.17
2017-12-15T12:54:46.069Z,5.12
2017-12-15T12:55:46.060Z,5.18
2017-12-15T12:56:46.054Z,5.17
2017-12-15T12:57:46.043Z,5.10
2017-12-15T12:58:46.027Z,5.21
2017-12-15T12:59:46.021Z,5.15
2017-12-15T13:00:46.006Z,5.20
2017-12-15T13:01:46.010Z,5.18
2017-12-15T13:02:45.986Z,5.18
2017-12-15T13:03:45.975Z,5.25
2017-12-15T13:04:45.973Z,5.28
2017-12-15T13:05:45.956Z,5.15
2017-12-15T13:06:45.943Z,5.25
2017-12-15T13:07:45.931Z,5.18
2017-12-15T13:08:45.921Z,5.20
2017-12-15T13:09:45.910Z,5.23
2017-12-15T13:10:45.898Z,5.15
2017-12-15T13:11:45.890Z,5.20
2017-12-15T13:12:45.885Z,5.21
2017-12-15T13:13:45.867Z,5.17
2017-12-15T13:14:45.857Z,5.26
2017-12-15T13:15:45.846Z,5.17
2017-12-15T13:16:45.835Z,5.21
2017-12-15T13:17:45.827Z,5.08
2017-12-15T13:18:45.817Z,5.18
2017-12-15T13:19:45.803Z,5.10
2017-12-15T13:20:45.793Z,5.12
2017-12-15T13:21:45.785Z,5.11
2017-12-15T13:22:45.772Z,5.05
2017-12-15T13:23:45.764Z,5.17
2017-12-15T13:24:45.749Z,5.11
2017-12-15T13:25:45.739Z,5.11
2017-12-15T13:26:45.728Z,5.18
2017-12-15T13:27:45.720Z,5.15
2017-12-15T13:28:45.707Z,5.05
2017-12-15T13:29:45.695Z,5.12
2017-12-15T13:30:45.685Z,5.17
2017-12-15T13:31:45.675Z,5.10
2017-12-15T13:32:45.665Z,5.05
2017-12-15T13:33:45.653Z,5.10